sensor_id;sensor_type;location;lat;lon;timestamp;pressure;altitude;pressure_sealevel;temperature;humidity
4133;BME280;2080;51.038;7.008;2023-02-03T00:02:03;77066.25;;;-142.53;100.00
4133;BME280;2080;51.038;7.008;2023-02-03T00:04:31;77072.09;;;-142.53;100.00
4133;BME280;2080;51.038;7.008;2023-02-03T00:06:59;77077.91;;;-142.53;100.00
4133;BME280;2080;51.038;7.008;2023-02-03T00:09:27;77062.38;;;-142.53;100.00
4133;BME280;2080;51.038;7.008;2023-02-03T00:11:57;77062.38;;;-142.53;100.00
4133;BME280;2080;51.038;7.008;2023-02-03T00:14:22;77050.72;;;-142.53;100.00
4133;BME280;2080;51.038;7.008;2023-02-03T00:16:50;77058.50;;;-142.53;100.00
4133;BME280;2080;51.038;7.008;2023-02-03T00:19:18;77048.78;;;-142.53;100.00
4133;BME280;2080;51.038;7.008;2023-02-03T00:21:43;77056.56;;;-142.53;100.00
4133;BME280;2080;51.038;7.008;2023-02-03T00:24:09;77046.84;;;-142.53;100.00
4133;BME280;2080;51.038;7.008;2023-02-03T00:26:39;77046.84;;;-142.53;100.00
4133;BME280;2080;51.038;7.008;2023-02-03T00:29:05;77044.91;;;-142.53;100.00
4133;BME280;2080;51.038;7.008;2023-02-03T00:31:32;77042.94;;;-142.53;100.00
4133;BME280;2080;51.038;7.008;2023-02-03T00:33:58;77031.28;;;-142.53;100.00
4133;BME280;2080;51.038;7.008;2023-02-03T00:36:24;77021.59;;;-142.53;100.00
4133;BME280;2080;51.038;7.008;2023-02-03T00:38:52;77046.84;;;-142.53;100.00
4133;BME280;2080;51.038;7.008;2023-02-03T00:41:19;77039.06;;;-142.53;100.00
4133;BME280;2080;51.038;7.008;2023-02-03T00:43:47;77035.19;;;-142.53;100.00
4133;BME280;2080;51.038;7.008;2023-02-03T00:46:12;77042.94;;;-142.53;100.00
4133;BME280;2080;51.038;7.008;2023-02-03T00:48:42;77035.19;;;-142.53;100.00
4133;BME280;2080;51.038;7.008;2023-02-03T00:51:10;77015.75;;;-142.53;100.00
4133;BME280;2080;51.038;7.008;2023-02-03T00:53:35;77011.88;;;-142.53;100.00
4133;BME280;2080;51.038;7.008;2023-02-03T00:56:00;77019.63;;;-142.53;100.00
4133;BME280;2080;51.038;7.008;2023-02-03T00:58:26;77035.19;;;-142.53;100.00
4133;BME280;2080;51.038;7.008;2023-02-03T01:00:54;77027.41;;;-142.53;100.00
4133;BME280;2080;51.038;7.008;2023-02-03T01:03:19;77035.19;;;-142.53;100.00
4133;BME280;2080;51.038;7.008;2023-02-03T01:05:45;77041.00;;;-142.53;100.00
4133;BME280;2080;51.038;7.008;2023-02-03T01:08:12;77013.81;;;-142.53;100.00
4133;BME280;2080;51.038;7.008;2023-02-03T01:10:39;77015.75;;;-142.53;100.00
4133;BME280;2080;51.038;7.008;2023-02-03T01:13:04;77023.53;;;-142.53;100.00
4133;BME280;2080;51.038;7.008;2023-02-03T01:15:29;77025.47;;;-142.53;100.00
4133;BME280;2080;51.038;7.008;2023-02-03T01:17:55;77023.53;;;-142.53;100.00
4133;BME280;2080;51.038;7.008;2023-02-03T01:20:22;77031.28;;;-142.53;100.00
4133;BME280;2080;51.038;7.008;2023-02-03T01:22:50;77029.34;;;-142.53;100.00
4133;BME280;2080;51.038;7.008;2023-02-03T01:25:15;77042.94;;;-142.53;100.00
4133;BME280;2080;51.038;7.008;2023-02-03T01:27:41;77031.28;;;-142.53;100.00
4133;BME280;2080;51.038;7.008;2023-02-03T01:30:07;77046.84;;;-142.53;100.00
4133;BME280;2080;51.038;7.008;2023-02-03T01:32:32;77056.56;;;-142.53;100.00
4133;BME280;2080;51.038;7.008;2023-02-03T01:35:00;77058.50;;;-142.53;100.00
4133;BME280;2080;51.038;7.008;2023-02-03T01:37:25;77046.84;;;-142.53;100.00
4133;BME280;2080;51.038;7.008;2023-02-03T01:39:50;77042.94;;;-142.53;100.00
4133;BME280;2080;51.038;7.008;2023-02-03T01:42:18;77052.66;;;-142.53;100.00
4133;BME280;2080;51.038;7.008;2023-02-03T01:44:49;77054.59;;;-142.53;100.00
4133;BME280;2080;51.038;7.008;2023-02-03T01:47:23;77035.19;;;-142.53;100.00
4133;BME280;2080;51.038;7.008;2023-02-03T01:50:14;77046.84;;;-142.53;100.00
4133;BME280;2080;51.038;7.008;2023-02-03T01:52:48;77054.59;;;-142.53;100.00
4133;BME280;2080;51.038;7.008;2023-02-03T01:55:19;77035.19;;;-142.53;100.00
4133;BME280;2080;51.038;7.008;2023-02-03T01:57:53;77066.25;;;-142.53;100.00
4133;BME280;2080;51.038;7.008;2023-02-03T02:00:20;77062.38;;;-142.53;100.00
4133;BME280;2080;51.038;7.008;2023-02-03T02:02:46;77081.81;;;-142.53;100.00
4133;BME280;2080;51.038;7.008;2023-02-03T02:05:28;77062.38;;;-142.53;100.00
4133;BME280;2080;51.038;7.008;2023-02-03T02:07:57;77050.72;;;-142.53;100.00
4133;BME280;2080;51.038;7.008;2023-02-03T02:10:24;77031.28;;;-142.53;100.00
4133;BME280;2080;51.038;7.008;2023-02-03T02:12:49;77058.50;;;-142.53;100.00
4133;BME280;2080;51.038;7.008;2023-02-03T02:15:15;77054.59;;;-142.53;100.00
4133;BME280;2080;51.038;7.008;2023-02-03T02:38:53;77023.53;;;-142.53;100.00
4133;BME280;2080;51.038;7.008;2023-02-03T02:41:39;77023.53;;;-142.53;100.00
4133;BME280;2080;51.038;7.008;2023-02-03T02:46:37;77039.06;;;-142.53;100.00
4133;BME280;2080;51.038;7.008;2023-02-03T02:49:09;77031.28;;;-142.53;100.00
4133;BME280;2080;51.038;7.008;2023-02-03T02:51:41;77023.53;;;-142.53;100.00
4133;BME280;2080;51.038;7.008;2023-02-03T02:54:12;77019.63;;;-142.53;100.00
4133;BME280;2080;51.038;7.008;2023-02-03T02:56:44;77015.75;;;-142.53;100.00
4133;BME280;2080;51.038;7.008;2023-02-03T02:59:13;77019.63;;;-142.53;100.00
4133;BME280;2080;51.038;7.008;2023-02-03T03:01:38;77011.88;;;-142.53;100.00
4133;BME280;2080;51.038;7.008;2023-02-03T03:04:08;77023.53;;;-142.53;100.00
4133;BME280;2080;51.038;7.008;2023-02-03T03:06:47;77021.59;;;-142.53;100.00
4133;BME280;2080;51.038;7.008;2023-02-03T03:09:20;77015.75;;;-142.53;100.00
4133;BME280;2080;51.038;7.008;2023-02-03T03:11:54;77037.13;;;-142.53;100.00
4133;BME280;2080;51.038;7.008;2023-02-03T03:14:24;77027.41;;;-142.53;100.00
4133;BME280;2080;51.038;7.008;2023-02-03T03:16:56;77017.69;;;-142.53;100.00
4133;BME280;2080;51.038;7.008;2023-02-03T03:19:26;77011.88;;;-142.53;100.00
4133;BME280;2080;51.038;7.008;2023-02-03T03:21:57;77011.88;;;-142.53;100.00
4133;BME280;2080;51.038;7.008;2023-02-03T03:24:45;77019.63;;;-142.53;100.00
4133;BME280;2080;51.038;7.008;2023-02-03T03:27:24;77015.75;;;-142.53;100.00
4133;BME280;2080;51.038;7.008;2023-02-03T03:29:55;77035.19;;;-142.53;100.00
4133;BME280;2080;51.038;7.008;2023-02-03T03:32:21;77039.06;;;-142.53;100.00
4133;BME280;2080;51.038;7.008;2023-02-03T03:34:47;77031.28;;;-142.53;100.00
4133;BME280;2080;51.038;7.008;2023-02-03T03:39:56;77027.41;;;-142.53;100.00
4133;BME280;2080;51.038;7.008;2023-02-03T03:45:14;77023.53;;;-142.53;100.00
4133;BME280;2080;51.038;7.008;2023-02-03T03:47:54;77007.97;;;-142.53;100.00
4133;BME280;2080;51.038;7.008;2023-02-03T03:50:24;77019.63;;;-142.53;100.00
4133;BME280;2080;51.038;7.008;2023-02-03T03:52:53;77015.75;;;-142.53;100.00
4133;BME280;2080;51.038;7.008;2023-02-03T03:55:19;77000.22;;;-142.53;100.00
4133;BME280;2080;51.038;7.008;2023-02-03T03:57:52;77004.09;;;-142.53;100.00
4133;BME280;2080;51.038;7.008;2023-02-03T04:00:19;77019.63;;;-142.53;100.00
4133;BME280;2080;51.038;7.008;2023-02-03T04:02:50;77011.88;;;-142.53;100.00
4133;BME280;2080;51.038;7.008;2023-02-03T04:05:17;77027.41;;;-142.53;100.00
4133;BME280;2080;51.038;7.008;2023-02-03T04:07:44;77025.47;;;-142.53;100.00
4133;BME280;2080;51.038;7.008;2023-02-03T04:10:21;77019.63;;;-142.53;100.00
4133;BME280;2080;51.038;7.008;2023-02-03T04:12:47;77007.97;;;-142.53;100.00
4133;BME280;2080;51.038;7.008;2023-02-03T04:15:15;77027.41;;;-142.53;100.00
4133;BME280;2080;51.038;7.008;2023-02-03T04:17:40;77013.81;;;-142.53;100.00
4133;BME280;2080;51.038;7.008;2023-02-03T04:20:06;77002.16;;;-142.53;100.00
4133;BME280;2080;51.038;7.008;2023-02-03T04:22:31;77031.28;;;-142.53;100.00
4133;BME280;2080;51.038;7.008;2023-02-03T04:24:57;77007.97;;;-142.53;100.00
4133;BME280;2080;51.038;7.008;2023-02-03T04:27:26;77023.53;;;-142.53;100.00
4133;BME280;2080;51.038;7.008;2023-02-03T04:29:51;77035.19;;;-142.53;100.00
4133;BME280;2080;51.038;7.008;2023-02-03T04:32:19;77027.41;;;-142.53;100.00
4133;BME280;2080;51.038;7.008;2023-02-03T04:34:45;77013.81;;;-142.53;100.00
4133;BME280;2080;51.038;7.008;2023-02-03T04:37:14;76988.56;;;-142.53;100.00
4133;BME280;2080;51.038;7.008;2023-02-03T04:39:42;76988.56;;;-142.53;100.00
4133;BME280;2080;51.038;7.008;2023-02-03T04:42:07;77000.22;;;-142.53;100.00
4133;BME280;2080;51.038;7.008;2023-02-03T04:44:35;77019.63;;;-142.53;100.00
4133;BME280;2080;51.038;7.008;2023-02-03T04:47:00;77007.97;;;-142.53;100.00
4133;BME280;2080;51.038;7.008;2023-02-03T04:49:28;76984.66;;;-142.53;100.00
4133;BME280;2080;51.038;7.008;2023-02-03T04:51:53;77000.22;;;-142.53;100.00
4133;BME280;2080;51.038;7.008;2023-02-03T04:54:21;77011.88;;;-142.53;100.00
4133;BME280;2080;51.038;7.008;2023-02-03T04:56:46;77007.97;;;-142.53;100.00
4133;BME280;2080;51.038;7.008;2023-02-03T04:59:14;77000.22;;;-142.53;100.00
4133;BME280;2080;51.038;7.008;2023-02-03T05:01:41;76984.66;;;-142.53;100.00
4133;BME280;2080;51.038;7.008;2023-02-03T05:04:06;76992.44;;;-142.53;100.00
4133;BME280;2080;51.038;7.008;2023-02-03T05:06:32;77006.03;;;-142.53;100.00
4133;BME280;2080;51.038;7.008;2023-02-03T05:08:58;77002.16;;;-142.53;100.00
4133;BME280;2080;51.038;7.008;2023-02-03T05:11:26;77002.16;;;-142.53;100.00
4133;BME280;2080;51.038;7.008;2023-02-03T05:13:52;76984.66;;;-142.53;100.00
4133;BME280;2080;51.038;7.008;2023-02-03T05:16:20;76984.66;;;-142.53;100.00
4133;BME280;2080;51.038;7.008;2023-02-03T05:18:46;76976.91;;;-142.53;100.00
4133;BME280;2080;51.038;7.008;2023-02-03T05:21:11;76973.00;;;-142.53;100.00
4133;BME280;2080;51.038;7.008;2023-02-03T05:23:39;76980.78;;;-142.53;100.00
4133;BME280;2080;51.038;7.008;2023-02-03T05:26:04;76961.34;;;-142.53;100.00
4133;BME280;2080;51.038;7.008;2023-02-03T05:28:32;76984.66;;;-142.53;100.00
4133;BME280;2080;51.038;7.008;2023-02-03T05:30:59;76973.00;;;-142.53;100.00
4133;BME280;2080;51.038;7.008;2023-02-03T05:33:26;76980.78;;;-142.53;100.00
4133;BME280;2080;51.038;7.008;2023-02-03T05:35:54;76976.91;;;-142.53;100.00
4133;BME280;2080;51.038;7.008;2023-02-03T05:38:20;76976.91;;;-142.53;100.00
4133;BME280;2080;51.038;7.008;2023-02-03T05:40:49;76984.66;;;-142.53;100.00
4133;BME280;2080;51.038;7.008;2023-02-03T05:43:36;76988.56;;;-142.53;100.00
4133;BME280;2080;51.038;7.008;2023-02-03T05:46:03;76978.84;;;-142.53;100.00
4133;BME280;2080;51.038;7.008;2023-02-03T05:48:29;76986.63;;;-142.53;100.00
4133;BME280;2080;51.038;7.008;2023-02-03T05:50:55;76976.91;;;-142.53;100.00
4133;BME280;2080;51.038;7.008;2023-02-03T05:53:20;76988.56;;;-142.53;100.00
4133;BME280;2080;51.038;7.008;2023-02-03T05:55:48;76984.66;;;-142.53;100.00
4133;BME280;2080;51.038;7.008;2023-02-03T05:58:16;76988.56;;;-142.53;100.00
4133;BME280;2080;51.038;7.008;2023-02-03T06:00:44;76984.66;;;-142.53;100.00
4133;BME280;2080;51.038;7.008;2023-02-03T06:03:09;77000.22;;;-142.53;100.00
4133;BME280;2080;51.038;7.008;2023-02-03T06:05:39;77007.97;;;-142.53;100.00
4133;BME280;2080;51.038;7.008;2023-02-03T06:08:10;76996.31;;;-142.53;100.00
4133;BME280;2080;51.038;7.008;2023-02-03T06:10:35;77013.81;;;-142.53;100.00
4133;BME280;2080;51.038;7.008;2023-02-03T06:13:12;77000.22;;;-142.53;100.00
4133;BME280;2080;51.038;7.008;2023-02-03T06:15:38;77000.22;;;-142.53;100.00
4133;BME280;2080;51.038;7.008;2023-02-03T06:18:03;77019.63;;;-142.53;100.00
4133;BME280;2080;51.038;7.008;2023-02-03T06:20:29;77007.97;;;-142.53;100.00
4133;BME280;2080;51.038;7.008;2023-02-03T06:22:56;76996.31;;;-142.53;100.00
4133;BME280;2080;51.038;7.008;2023-02-03T06:25:22;76996.31;;;-142.53;100.00
4133;BME280;2080;51.038;7.008;2023-02-03T06:27:48;76980.78;;;-142.53;100.00
4133;BME280;2080;51.038;7.008;2023-02-03T06:30:14;76984.66;;;-142.53;100.00
4133;BME280;2080;51.038;7.008;2023-02-03T06:32:41;76976.91;;;-142.53;100.00
4133;BME280;2080;51.038;7.008;2023-02-03T06:35:09;76978.84;;;-142.53;100.00
4133;BME280;2080;51.038;7.008;2023-02-03T06:37:34;76969.13;;;-142.53;100.00
4133;BME280;2080;51.038;7.008;2023-02-03T06:40:01;77004.09;;;-142.53;100.00
4133;BME280;2080;51.038;7.008;2023-02-03T06:42:31;77007.97;;;-142.53;100.00
4133;BME280;2080;51.038;7.008;2023-02-03T06:44:56;76988.56;;;-142.53;100.00
4133;BME280;2080;51.038;7.008;2023-02-03T06:47:22;76984.66;;;-142.53;100.00
4133;BME280;2080;51.038;7.008;2023-02-03T06:49:49;76980.78;;;-142.53;100.00
4133;BME280;2080;51.038;7.008;2023-02-03T06:52:16;76998.28;;;-142.53;100.00
4133;BME280;2080;51.038;7.008;2023-02-03T06:54:42;77000.22;;;-142.53;100.00
4133;BME280;2080;51.038;7.008;2023-02-03T06:57:10;76984.66;;;-142.53;100.00
4133;BME280;2080;51.038;7.008;2023-02-03T06:59:37;76988.56;;;-142.53;100.00
4133;BME280;2080;51.038;7.008;2023-02-03T07:02:05;76976.91;;;-142.53;100.00
4133;BME280;2080;51.038;7.008;2023-02-03T07:04:33;76986.63;;;-142.53;100.00
4133;BME280;2080;51.038;7.008;2023-02-03T07:07:01;76986.63;;;-142.53;100.00
4133;BME280;2080;51.038;7.008;2023-02-03T07:09:28;77015.75;;;-142.53;100.00
4133;BME280;2080;51.038;7.008;2023-02-03T07:11:56;76988.56;;;-142.53;100.00
4133;BME280;2080;51.038;7.008;2023-02-03T07:14:21;76992.44;;;-142.53;100.00
4133;BME280;2080;51.038;7.008;2023-02-03T07:16:49;76984.66;;;-142.53;100.00
4133;BME280;2080;51.038;7.008;2023-02-03T07:19:14;76980.78;;;-142.53;100.00
4133;BME280;2080;51.038;7.008;2023-02-03T07:21:43;76984.66;;;-142.53;100.00
4133;BME280;2080;51.038;7.008;2023-02-03T07:24:08;76984.66;;;-142.53;100.00
4133;BME280;2080;51.038;7.008;2023-02-03T07:26:36;76973.00;;;-142.53;100.00
4133;BME280;2080;51.038;7.008;2023-02-03T07:29:04;76990.50;;;-142.53;100.00
4133;BME280;2080;51.038;7.008;2023-02-03T07:31:33;77004.09;;;-142.53;100.00
4133;BME280;2080;51.038;7.008;2023-02-03T07:33:59;77011.88;;;-142.53;100.00
4133;BME280;2080;51.038;7.008;2023-02-03T07:36:25;77004.09;;;-142.53;100.00
4133;BME280;2080;51.038;7.008;2023-02-03T07:38:53;77004.09;;;-142.53;100.00
4133;BME280;2080;51.038;7.008;2023-02-03T07:41:21;76980.78;;;-142.53;100.00
4133;BME280;2080;51.038;7.008;2023-02-03T07:43:47;77000.22;;;-142.53;100.00
4133;BME280;2080;51.038;7.008;2023-02-03T07:46:12;76984.66;;;-142.53;100.00
4133;BME280;2080;51.038;7.008;2023-02-03T07:48:38;76984.66;;;-142.53;100.00
4133;BME280;2080;51.038;7.008;2023-02-03T07:51:03;76996.31;;;-142.53;100.00
4133;BME280;2080;51.038;7.008;2023-02-03T07:53:29;76996.31;;;-142.53;100.00
4133;BME280;2080;51.038;7.008;2023-02-03T07:56:00;77007.97;;;-142.53;100.00
4133;BME280;2080;51.038;7.008;2023-02-03T07:58:28;76996.31;;;-142.53;100.00
4133;BME280;2080;51.038;7.008;2023-02-03T08:00:56;76984.66;;;-142.53;100.00
4133;BME280;2080;51.038;7.008;2023-02-03T08:03:22;76988.56;;;-142.53;100.00
4133;BME280;2080;51.038;7.008;2023-02-03T08:05:50;77000.22;;;-142.53;100.00
4133;BME280;2080;51.038;7.008;2023-02-03T08:08:16;77031.28;;;-142.53;100.00
4133;BME280;2080;51.038;7.008;2023-02-03T08:10:41;77015.75;;;-142.53;100.00
4133;BME280;2080;51.038;7.008;2023-02-03T08:13:10;77011.88;;;-142.53;100.00
4133;BME280;2080;51.038;7.008;2023-02-03T08:15:35;77009.94;;;-142.53;100.00
4133;BME280;2080;51.038;7.008;2023-02-03T08:18:00;77009.94;;;-142.53;100.00
4133;BME280;2080;51.038;7.008;2023-02-03T08:20:26;76992.44;;;-142.53;100.00
4133;BME280;2080;51.038;7.008;2023-02-03T08:22:54;76980.78;;;-142.53;100.00
4133;BME280;2080;51.038;7.008;2023-02-03T08:25:24;76984.66;;;-142.53;100.00
4133;BME280;2080;51.038;7.008;2023-02-03T08:27:50;76996.31;;;-142.53;100.00
4133;BME280;2080;51.038;7.008;2023-02-03T08:30:16;77007.97;;;-142.53;100.00
4133;BME280;2080;51.038;7.008;2023-02-03T08:32:45;77011.88;;;-142.53;100.00
4133;BME280;2080;51.038;7.008;2023-02-03T08:35:10;77023.53;;;-142.53;100.00
4133;BME280;2080;51.038;7.008;2023-02-03T08:37:36;77019.63;;;-142.53;100.00
4133;BME280;2080;51.038;7.008;2023-02-03T08:40:02;77019.63;;;-142.53;100.00
4133;BME280;2080;51.038;7.008;2023-02-03T08:42:30;77019.63;;;-142.53;100.00
4133;BME280;2080;51.038;7.008;2023-02-03T08:44:56;77023.53;;;-142.53;100.00
4133;BME280;2080;51.038;7.008;2023-02-03T08:47:21;77019.63;;;-142.53;100.00
4133;BME280;2080;51.038;7.008;2023-02-03T08:49:47;77007.97;;;-142.53;100.00
4133;BME280;2080;51.038;7.008;2023-02-03T08:52:12;77031.28;;;-142.53;100.00
4133;BME280;2080;51.038;7.008;2023-02-03T08:54:40;77009.94;;;-142.53;100.00
4133;BME280;2080;51.038;7.008;2023-02-03T08:57:09;77015.75;;;-142.53;100.00
4133;BME280;2080;51.038;7.008;2023-02-03T08:59:36;77009.94;;;-142.53;100.00
4133;BME280;2080;51.038;7.008;2023-02-03T09:02:03;77015.75;;;-142.53;100.00
4133;BME280;2080;51.038;7.008;2023-02-03T09:04:31;77019.63;;;-142.53;100.00
4133;BME280;2080;51.038;7.008;2023-02-03T09:06:58;77037.13;;;-142.53;100.00
4133;BME280;2080;51.038;7.008;2023-02-03T09:09:24;77027.41;;;-142.53;100.00
4133;BME280;2080;51.038;7.008;2023-02-03T09:11:53;77035.19;;;-142.53;100.00
4133;BME280;2080;51.038;7.008;2023-02-03T09:14:31;77025.47;;;-142.53;100.00
4133;BME280;2080;51.038;7.008;2023-02-03T09:16:59;77029.34;;;-142.53;100.00
4133;BME280;2080;51.038;7.008;2023-02-03T09:19:26;77031.28;;;-142.53;100.00
4133;BME280;2080;51.038;7.008;2023-02-03T09:21:52;77023.53;;;-142.53;100.00
4133;BME280;2080;51.038;7.008;2023-02-03T09:24:20;77013.81;;;-142.53;100.00
4133;BME280;2080;51.038;7.008;2023-02-03T09:26:48;77009.94;;;-142.53;100.00
4133;BME280;2080;51.038;7.008;2023-02-03T09:29:13;77042.94;;;-142.53;100.00
4133;BME280;2080;51.038;7.008;2023-02-03T09:31:39;77060.44;;;-142.53;100.00
4133;BME280;2080;51.038;7.008;2023-02-03T09:34:04;77046.84;;;-142.53;100.00
4133;BME280;2080;51.038;7.008;2023-02-03T09:36:32;77031.28;;;-142.53;100.00
4133;BME280;2080;51.038;7.008;2023-02-03T09:39:01;77050.72;;;-142.53;100.00
4133;BME280;2080;51.038;7.008;2023-02-03T09:41:55;77046.84;;;-142.53;100.00
4133;BME280;2080;51.038;7.008;2023-02-03T09:46:59;77027.41;;;-142.53;100.00
4133;BME280;2080;51.038;7.008;2023-02-03T09:49:42;77023.53;;;-142.53;100.00
4133;BME280;2080;51.038;7.008;2023-02-03T09:52:31;77033.25;;;-142.53;100.00
4133;BME280;2080;51.038;7.008;2023-02-03T09:57:30;77042.94;;;-142.53;100.00
4133;BME280;2080;51.038;7.008;2023-02-03T10:00:02;77042.94;;;-142.53;100.00
4133;BME280;2080;51.038;7.008;2023-02-03T10:05:59;77062.38;;;-142.53;100.00
4133;BME280;2080;51.038;7.008;2023-02-03T10:19:15;77085.69;;;-142.53;100.00
4133;BME280;2080;51.038;7.008;2023-02-03T10:21:48;77070.16;;;-142.53;100.00
4133;BME280;2080;51.038;7.008;2023-02-03T10:24:22;77056.56;;;-142.53;100.00
4133;BME280;2080;51.038;7.008;2023-02-03T10:26:52;77074.03;;;-142.53;100.00
4133;BME280;2080;51.038;7.008;2023-02-03T10:29:20;77081.81;;;-142.53;100.00
4133;BME280;2080;51.038;7.008;2023-02-03T10:31:48;77077.91;;;-142.53;100.00
4133;BME280;2080;51.038;7.008;2023-02-03T10:34:16;77085.69;;;-142.53;100.00
4133;BME280;2080;51.038;7.008;2023-02-03T10:39:50;77077.91;;;-142.53;100.00
4133;BME280;2080;51.038;7.008;2023-02-03T10:42:16;77095.41;;;-142.53;100.00
4133;BME280;2080;51.038;7.008;2023-02-03T10:44:52;77085.69;;;-142.53;100.00
4133;BME280;2080;51.038;7.008;2023-02-03T10:47:30;77085.69;;;-142.53;100.00
4133;BME280;2080;51.038;7.008;2023-02-03T10:50:06;77093.47;;;-142.53;100.00
4133;BME280;2080;51.038;7.008;2023-02-03T10:52:37;77081.81;;;-142.53;100.00
4133;BME280;2080;51.038;7.008;2023-02-03T10:57:52;77066.25;;;-142.53;100.00
4133;BME280;2080;51.038;7.008;2023-02-03T11:00:30;77074.03;;;-142.53;100.00
4133;BME280;2080;51.038;7.008;2023-02-03T11:02:59;77081.81;;;-142.53;100.00
4133;BME280;2080;51.038;7.008;2023-02-03T11:05:27;77074.03;;;-142.53;100.00
4133;BME280;2080;51.038;7.008;2023-02-03T11:07:53;77066.25;;;-142.53;100.00
4133;BME280;2080;51.038;7.008;2023-02-03T11:13:20;77042.94;;;-142.53;100.00
4133;BME280;2080;51.038;7.008;2023-02-03T11:20:57;77017.69;;;-142.53;100.00
4133;BME280;2080;51.038;7.008;2023-02-03T11:23:26;77023.53;;;-142.53;100.00
4133;BME280;2080;51.038;7.008;2023-02-03T11:25:54;77019.63;;;-142.53;100.00
4133;BME280;2080;51.038;7.008;2023-02-03T11:28:27;77039.06;;;-142.53;100.00
4133;BME280;2080;51.038;7.008;2023-02-03T11:30:56;77031.28;;;-142.53;100.00
4133;BME280;2080;51.038;7.008;2023-02-03T11:33:27;77031.28;;;-142.53;100.00
4133;BME280;2080;51.038;7.008;2023-02-03T11:35:59;77023.53;;;-142.53;100.00
4133;BME280;2080;51.038;7.008;2023-02-03T11:38:32;77023.53;;;-142.53;100.00
4133;BME280;2080;51.038;7.008;2023-02-03T11:41:01;77019.63;;;-142.53;100.00
4133;BME280;2080;51.038;7.008;2023-02-03T11:43:30;77006.03;;;-142.53;100.00
4133;BME280;2080;51.038;7.008;2023-02-03T11:46:00;77017.69;;;-142.53;100.00
4133;BME280;2080;51.038;7.008;2023-02-03T11:48:58;77037.13;;;-142.53;100.00
4133;BME280;2080;51.038;7.008;2023-02-03T12:00:20;77007.97;;;-142.53;100.00
4133;BME280;2080;51.038;7.008;2023-02-03T12:02:58;77015.75;;;-142.53;100.00
4133;BME280;2080;51.038;7.008;2023-02-03T12:11:52;77000.22;;;-142.53;100.00
4133;BME280;2080;51.038;7.008;2023-02-03T12:19:55;77011.88;;;-142.53;100.00
4133;BME280;2080;51.038;7.008;2023-02-03T12:25:41;76988.56;;;-142.53;100.00
4133;BME280;2080;51.038;7.008;2023-02-03T12:33:50;76980.78;;;-142.53;100.00
4133;BME280;2080;51.038;7.008;2023-02-03T12:38:55;76986.63;;;-142.53;100.00
4133;BME280;2080;51.038;7.008;2023-02-03T12:41:27;76984.66;;;-142.53;100.00
4133;BME280;2080;51.038;7.008;2023-02-03T12:43:59;76996.31;;;-142.53;100.00
4133;BME280;2080;51.038;7.008;2023-02-03T12:49:08;76984.66;;;-142.53;100.00
4133;BME280;2080;51.038;7.008;2023-02-03T12:52:25;76965.25;;;-142.53;100.00
4133;BME280;2080;51.038;7.008;2023-02-03T12:54:48;76984.66;;;-142.53;100.00
4133;BME280;2080;51.038;7.008;2023-02-03T12:57:40;76976.91;;;-142.53;100.00
4133;BME280;2080;51.038;7.008;2023-02-03T13:00:25;76976.91;;;-142.53;100.00
4133;BME280;2080;51.038;7.008;2023-02-03T13:08:30;76969.13;;;-142.53;100.00
4133;BME280;2080;51.038;7.008;2023-02-03T13:11:09;76969.13;;;-142.53;100.00
4133;BME280;2080;51.038;7.008;2023-02-03T13:13:46;76973.00;;;-142.53;100.00
4133;BME280;2080;51.038;7.008;2023-02-03T13:16:20;76953.59;;;-142.53;100.00
4133;BME280;2080;51.038;7.008;2023-02-03T13:18:52;76945.81;;;-142.53;100.00
4133;BME280;2080;51.038;7.008;2023-02-03T13:21:20;76965.25;;;-142.53;100.00
4133;BME280;2080;51.038;7.008;2023-02-03T13:23:45;76976.91;;;-142.53;100.00
4133;BME280;2080;51.038;7.008;2023-02-03T13:29:02;76965.25;;;-142.53;100.00
4133;BME280;2080;51.038;7.008;2023-02-03T13:42:52;76961.34;;;-142.53;100.00
4133;BME280;2080;51.038;7.008;2023-02-03T13:45:44;76959.41;;;-142.53;100.00
4133;BME280;2080;51.038;7.008;2023-02-03T13:48:21;76941.94;;;-142.53;100.00
4133;BME280;2080;51.038;7.008;2023-02-03T13:51:00;76941.94;;;-142.53;100.00
4133;BME280;2080;51.038;7.008;2023-02-03T13:53:27;76914.75;;;-142.53;100.00
4133;BME280;2080;51.038;7.008;2023-02-03T13:55:54;76901.13;;;-142.53;100.00
4133;BME280;2080;51.038;7.008;2023-02-03T13:58:24;76885.59;;;-142.53;100.00
4133;BME280;2080;51.038;7.008;2023-02-03T14:03:40;76860.34;;;-142.53;100.00
4133;BME280;2080;51.038;7.008;2023-02-03T14:12:19;76887.53;;;-142.53;100.00
4133;BME280;2080;51.038;7.008;2023-02-03T14:20:10;76910.84;;;-142.53;100.00
4133;BME280;2080;51.038;7.008;2023-02-03T14:22:47;76953.59;;;-142.53;100.00
4133;BME280;2080;51.038;7.008;2023-02-03T14:25:16;76922.50;;;-142.53;100.00
4133;BME280;2080;51.038;7.008;2023-02-03T14:27:43;76932.22;;;-142.53;100.00
4133;BME280;2080;51.038;7.008;2023-02-03T14:30:11;76940.00;;;-142.53;100.00
4133;BME280;2080;51.038;7.008;2023-02-03T14:32:59;76949.69;;;-142.53;100.00
4133;BME280;2080;51.038;7.008;2023-02-03T14:35:39;76940.00;;;-142.53;100.00
4133;BME280;2080;51.038;7.008;2023-02-03T14:38:09;76914.75;;;-142.53;100.00
4133;BME280;2080;51.038;7.008;2023-02-03T14:40:52;76903.09;;;-142.53;100.00
4133;BME280;2080;51.038;7.008;2023-02-03T14:48:53;76868.13;;;-142.53;100.00
4133;BME280;2080;51.038;7.008;2023-02-03T14:54:09;76852.56;;;-142.53;100.00
4133;BME280;2080;51.038;7.008;2023-02-03T15:00:00;76872.00;;;-142.53;100.00
4133;BME280;2080;51.038;7.008;2023-02-03T15:02:31;76883.66;;;-142.53;100.00
4133;BME280;2080;51.038;7.008;2023-02-03T15:07:45;76899.19;;;-142.53;100.00
4133;BME280;2080;51.038;7.008;2023-02-03T15:10:23;76899.19;;;-142.53;100.00
4133;BME280;2080;51.038;7.008;2023-02-03T15:12:53;76879.78;;;-142.53;100.00
4133;BME280;2080;51.038;7.008;2023-02-03T15:17:52;76893.38;;;-142.53;100.00
4133;BME280;2080;51.038;7.008;2023-02-03T15:20:40;76895.31;;;-142.53;100.00
4133;BME280;2080;51.038;7.008;2023-02-03T15:23:28;76920.56;;;-142.53;100.00
4133;BME280;2080;51.038;7.008;2023-02-03T15:26:02;76920.56;;;-142.53;100.00
4133;BME280;2080;51.038;7.008;2023-02-03T15:28:29;76918.63;;;-142.53;100.00
4133;BME280;2080;51.038;7.008;2023-02-03T15:31:20;76916.69;;;-142.53;100.00